Latest Coastal Weather Observations for Samuel Hill

IDQ60701

Issued at 10:21 pm EST Thursday 5 May 2016 (issued every 10 minutes, with the page automatically refreshed every 10 minutes)

About coastal observations | Map of coastal stations | Coastal observations for QLD | Marine services | Other Formats
Station Details ID: 033308 Name: SAMUEL HILL AERO Lat: -22.74 Lon: 150.66 Height: 31.0 m
Data from the previous 72 hours. | See also: Recent months at Samuel Hill
Date/Time
EST
Temp

°C
Wind Pressure Rain
since 9am
mm
Weather Cloud Vis
km
Sea
Height
m
Swell
Dir
 
Speed
knots
Gust
knots
hPa Trend Height
m
Period
s
Dir
05/10:00pm 18.3 CALM 0 0 1017.9 - 0.0 - - 10 - - - -
05/09:30pm 18.7 CALM 0 0 1018.2 - 0.0 - - 10 - - - -
05/09:00pm 19.0 CALM 0 0 1017.9 - 0.0 - - 10 - - - -
05/08:30pm 19.8 SSE 3 3 1017.9 - 0.0 - - 10 - - - -
05/08:00pm 20.4 SE 3 4 1017.7 - 0.0 - - 10 - - - -
05/07:30pm 20.8 SSE 4 5 1017.4 - 0.0 - - 10 - - - -
05/07:00pm 21.1 SSE 4 5 1017.2 - 0.0 - - 10 - - - -
05/06:30pm 21.7 SSE 4 5 1016.8 - 0.0 - - 10 - - - -
05/06:00pm 22.4 SE 5 6 1016.4 - 0.0 - - 10 - - - -
05/05:30pm 23.1 ESE 5 7 1016.3 - 0.0 - - 10 - - - -
05/05:00pm 23.7 ESE 8 12 1016.1 - 0.0 - Partly cloudy 10 - - - -
05/04:30pm 24.5 ESE 10 15 1016.0 - 0.0 - - 10 - - - -
05/04:00pm 25.0 ESE 10 14 1015.8 - 0.0 - Partly cloudy 10 - - - -
05/03:30pm 25.5 ESE 10 15 1015.9 - 0.0 - Partly cloudy 10 - - - -
05/03:00pm 26.0 ESE 10 15 1015.7 - 0.0 - - 10 - - - -
05/02:30pm 26.0 ESE 9 13 1015.8 - 0.0 - - 10 - - - -
05/02:00pm 26.3 ESE 9 14 1015.8 - 0.0 - - 10 - - - -
05/01:30pm 26.5 ESE 9 14 1016.1 - 0.0 - - 10 - - - -
05/01:00pm 26.6 ESE 9 14 1016.5 - 0.0 - - 10 - - - -
05/12:30pm 26.1 SE 9 13 1016.8 - 0.0 - - 10 - - - -
05/12:00pm 26.2 ESE 10 15 1017.4 - 0.0 - - 10 - - - -
05/11:30am 26.7 SE 10 18 1017.9 - 0.0 - Partly cloudy 10 - - - -
05/11:00am 26.1 SE 9 15 1018.2 - 0.0 - Partly cloudy 10 - - - -
05/10:30am 25.2 SE 10 14 1018.6 - 0.0 - Partly cloudy 10 - - - -
05/10:00am 24.9 ESE 11 16 1018.7 - 0.0 - Partly cloudy 10 - - - -
05/09:30am 24.8 SE 9 13 1018.7 - 0.0 - Partly cloudy 10 - - - -
05/09:00am 25.3 SE 8 14 1018.5 - 0.0 - Partly cloudy 10 - - - -
05/08:42am 24.8 SSE 7 12 1018.4 - 0.0 - Partly cloudy 10 - - - -
05/08:30am 24.3 SSE 7 10 1018.4 - 0.0 - Partly cloudy 10 - - - -
05/08:00am 23.1 SE 5 7 1018.0 - 0.0 - - 10 - - - -
05/07:30am 22.2 SE 3 5 1017.7 - 0.0 - Partly cloudy 10 - - - -
05/07:00am 21.0 SE 1 3 1017.4 - 0.0 - Partly cloudy 10 - - - -
05/06:30am 20.3 SSE 2 4 1017.0 - 0.0 - - 10 - - - -
05/06:00am 20.4 CALM 0 0 1016.8 - 0.0 - - 10 - - - -
05/05:37am 20.8 S 4 5 1016.5 - 0.0 - Partly cloudy 10 - - - -
05/05:30am 20.9 S 4 5 1016.5 - 0.0 - Partly cloudy 10 - - - -
05/05:06am 21.1 SSE 4 4 1016.3 - 0.0 - Partly cloudy 10 - - - -
05/05:00am 20.9 SSE 3 4 1016.2 - 0.0 - Partly cloudy 10 - - - -
05/04:30am 20.8 SE 2 4 1015.8 - 0.0 - Partly cloudy 10 - - - -
05/04:00am 20.3 CALM 0 0 1015.7 - 0.0 - - 10 - - - -
05/03:30am 20.5 CALM 0 0 1015.6 - 0.0 - Partly cloudy 10 - - - -
05/03:00am 20.7 SE 3 4 1015.5 - 0.0 - Partly cloudy 10 - - - -
05/02:30am 20.8 SSE 3 4 1015.6 - 0.0 - - 10 - - - -
05/02:00am 20.8 CALM 0 0 1015.7 - 0.0 - - 10 - - - -
05/01:30am 20.9 SSE 3 5 1015.8 - 0.0 - - 10 - - - -
05/01:00am 20.8 SE 1 3 1016.1 - 0.0 - - 10 - - - -
05/12:30am 20.9 SSE 3 4 1016.4 - 0.0 - - 10 - - - -
05/12:00am 21.2 CALM 0 0 1016.4 - 0.0 - Partly cloudy 10 - - - -
 
Date/Time
EST
Temp

°C
Wind Pressure Rain
since 9am
mm
Weather Cloud Vis
km
Sea
Height
m
Swell
Dir
 
Speed
knots
Gust
knots
hPa Trend Height
m
Period
s
Dir
04/11:30pm 21.4 CALM 0 0 1016.6 - 0.0 - - 10 - - - -
04/11:00pm 21.9 CALM 0 0 1016.8 - 0.0 - - 10 - - - -
04/10:30pm 22.1 CALM 0 0 1017.1 - 0.0 - Partly cloudy 10 - - - -
04/10:00pm 22.7 S 1 3 1017.3 - 0.0 - Partly cloudy 10 - - - -
04/09:30pm 22.6 S 3 5 1017.4 - 0.0 - Partly cloudy 10 - - - -
04/09:00pm 22.6 SSE 3 4 1017.2 - 0.0 - Cloudy 10 - - - -
04/08:30pm 22.7 SSE 3 4 1017.1 - 0.0 - Partly cloudy 10 - - - -
04/08:00pm 22.7 SSE 4 5 1016.9 - 0.0 - Partly cloudy 10 - - - -
04/07:30pm 22.9 S 3 5 1016.4 - 0.0 - Partly cloudy 10 - - - -
04/07:00pm 23.3 CALM 0 0 1016.1 - 0.0 - Partly cloudy 10 - - - -
04/06:30pm 23.4 CALM 0 3 1015.6 - 0.0 - - 10 - - - -
04/06:00pm 23.6 SE 3 4 1015.3 - 0.0 - Cloudy 10 - - - -
04/05:30pm 23.8 ESE 4 5 1014.6 - 0.0 - - 10 - - - -
04/05:00pm 24.1 SE 6 10 1014.3 - 0.0 - - 10 - - - -
04/04:30pm 24.4 ESE 6 10 1014.1 - 0.0 - - 10 - - - -
04/04:00pm 24.9 SE 8 11 1013.8 - 0.0 - - 10 - - - -
04/03:30pm 25.5 ESE 7 10 1013.5 - 0.0 - - 10 - - - -
04/03:00pm 26.5 SE 6 9 1013.2 - 0.0 - Partly cloudy 10 - - - -
04/02:30pm 26.9 SE 7 10 1013.2 - 0.0 - Partly cloudy 10 - - - -
04/02:00pm 26.9 SSW 6 10 1013.2 - 0.0 - Partly cloudy 10 - - - -
04/01:30pm 27.3 SSE 5 7 1013.5 - 0.0 - - 10 - - - -
04/01:00pm 26.9 WSW 5 6 1013.9 - 0.0 - Partly cloudy 10 - - - -
04/12:30pm 26.7 W 5 8 1014.3 - 0.0 - Partly cloudy 10 - - - -
04/12:00pm 27.2 WNW 5 7 1014.9 - 0.0 Rain Mostly clear 10 - - - -
04/11:30am 26.4 WNW 5 7 1015.1 - 0.0 - Partly cloudy 10 - - - -
04/11:00am 26.8 WNW 4 6 1015.5 - 0.0 - Partly cloudy 10 - - - -
04/10:30am 26.5 WNW 4 6 1015.8 - 0.0 - Partly cloudy 10 - - - -
04/10:00am 26.2 NW 3 5 1016.1 - 0.0 - - 10 - - - -
04/09:30am 24.9 CALM 0 0 1016.3 - 0.0 - - 10 - - - -
04/09:00am 24.0 CALM 0 0 1016.2 - 0.0 - Mostly clear 10 - - - -
04/08:30am 23.3 CALM 0 3 1016.2 - 0.0 - Partly cloudy 10 - - - -
04/08:00am 23.0 CALM 0 0 1015.9 - 0.0 - - 10 - - - -
04/07:30am 22.7 CALM 0 0 1015.4 - 0.0 - - 10 - - - -
04/07:00am 22.1 NE 2 4 1015.1 - 0.0 - Partly cloudy 10 - - - -
04/06:30am 22.1 CALM 0 0 1014.8 - 0.0 - Partly cloudy 10 - - - -
04/06:00am 21.7 CALM 0 0 1014.2 - 0.0 - Cloudy 10 - - - -
04/05:30am 21.8 CALM 0 0 1013.7 - 0.0 - - 10 - - - -
04/05:00am 21.5 CALM 0 0 1013.3 - 0.0 - - 10 - - - -
04/04:30am 21.9 CALM 0 0 1013.1 - 0.0 - - 10 - - - -
04/04:00am 21.6 CALM 0 0 1012.9 - 0.0 - - 10 - - - -
04/03:30am 21.7 CALM 0 0 1012.9 - 0.0 - - 10 - - - -
04/03:00am 21.9 N 3 4 1012.8 - 0.0 - Partly cloudy 10 - - - -
04/02:30am 21.7 NE 2 5 1012.6 - 0.0 - - 10 - - - -
04/02:00am 22.1 ENE 2 3 1012.9 - 0.0 - - 10 - - - -
04/01:30am 22.6 CALM 0 0 1013.1 - 0.0 - - 10 - - - -
04/01:00am 22.9 CALM 0 2 1013.3 - 0.0 - - 10 - - - -
04/12:30am 22.8 N 5 6 1013.3 - 0.0 - - 10 - - - -
04/12:00am 23.0 CALM 0 0 1013.6 - 0.0 - Partly cloudy 10 - - - -
 
Date/Time
EST
Temp

°C
Wind Pressure Rain
since 9am
mm
Weather Cloud Vis
km
Sea
Height
m
Swell
Dir
 
Speed
knots
Gust
knots
hPa Trend Height
m
Period
s
Dir
03/11:30pm 23.4 NW 3 4 1013.7 - 0.0 - - 10 - - - -
03/11:00pm 23.8 NNW 4 5 1014.0 - 0.0 - Partly cloudy 10 - - - -
03/10:30pm 23.9 N 4 5 1013.9 - 0.0 - Partly cloudy 10 - - - -
03/10:00pm 24.0 NNW 4 6 1014.5 - 0.0 - Partly cloudy 10 - - - -
03/09:30pm 24.2 NW 1 4 1014.3 - 0.0 - Partly cloudy 10 - - - -
03/09:00pm 24.2 N 4 5 1014.3 - 0.0 - Cloudy 10 - - - -
03/08:30pm 24.2 NNE 4 7 1014.5 - 0.0 - Cloudy 10 - - - -
03/08:00pm 24.6 N 2 4 1014.3 - 0.0 - Partly cloudy 10 - - - -
03/07:30pm 24.9 N 4 5 1014.1 - 0.0 - Cloudy 10 - - - -
03/07:00pm 24.9 NNW 4 5 1013.7 - 0.0 - Partly cloudy 10 - - - -
03/06:30pm 25.1 N 5 7 1013.0 - 0.0 - Cloudy 10 - - - -
03/06:00pm 25.5 N 6 9 1012.7 - 0.0 - Mostly cloudy 10 - - - -
03/05:30pm 25.6 NNE 4 6 1012.4 - 0.0 - Cloudy 10 - - - -
03/05:00pm 26.4 NNE 6 9 1012.0 - 0.0 - Partly cloudy 10 - - - -
03/04:30pm 27.7 NNE 6 8 1011.8 - 0.0 - - 10 - - - -
03/04:00pm 28.3 N 5 7 1011.4 - 0.0 - - 10 - - - -
03/03:30pm 29.1 N 5 7 1011.4 - 0.0 - - 10 - - - -
03/03:00pm 28.6 N 5 8 1011.4 - 0.0 - - 10 - - - -
03/02:30pm 28.6 N 6 9 1011.6 - 0.0 - - 10 - - - -
03/02:00pm 28.5 N 4 7 1011.7 - 0.0 - - 10 - - - -
03/01:30pm 28.9 NNW 6 8 1011.9 - 0.0 - - 10 - - - -
03/01:00pm 28.7 NNW 5 8 1012.3 - 0.0 - - 10 - - - -
03/12:30pm 28.7 N 6 9 1012.6 - 0.0 - - 10 - - - -
03/12:00pm 29.0 N 5 7 1013.1 - 0.0 - - 10 - - - -
03/11:30am 28.6 NW 3 7 1013.8 - 0.0 - - 10 - - - -
03/11:00am 28.0 NW 3 5 1014.3 - 0.0 - Partly cloudy 10 - - - -
03/10:30am 27.8 NNE 5 6 1014.7 - 0.0 - - 10 - - - -
03/10:00am 26.8 WNW 3 5 1015.2 - 0.0 - Partly cloudy 10 - - - -
03/09:30am 26.4 NW 3 5 1015.5 - 0.0 - - 10 - - - -
03/09:00am 25.6 CALM 0 0 1015.3 - 0.0 - - 10 - - - -
03/08:30am 23.4 CALM 0 0 1015.3 - 0.0 - Partly cloudy 10 - - - -
03/08:00am 23.1 CALM 0 0 1015.3 - 0.0 - Partly cloudy 10 - - - -
03/07:30am 22.1 CALM 0 0 1015.1 - 0.0 - - 10 - - - -
03/07:00am 20.9 CALM 0 0 1015.0 - 0.0 - - 10 - - - -
03/06:30am 19.9 CALM 0 0 1014.7 - 0.0 - - 10 - - - -
03/06:00am 20.1 CALM 0 2 1014.2 - 0.0 - - 10 - - - -
03/05:30am 20.0 CALM 0 0 1014.0 - 0.0 - - 10 - - - -
03/05:00am 20.5 CALM 0 0 1013.8 - 0.0 - Partly cloudy 10 - - - -
03/04:30am 21.0 CALM 0 0 1013.8 - 0.0 - Cloudy 10 - - - -
03/04:02am 20.7 SSW 2 4 1013.9 - 0.0 - Partly cloudy 10 - - - -
03/04:00am 20.7 SSW 3 4 1013.9 - 0.0 - Partly cloudy 10 - - - -
03/03:51am 20.4 CALM 0 3 1013.9 - 0.0 - Partly cloudy 10 - - - -
03/03:30am 20.2 CALM 0 0 1013.8 - 0.0 - Partly cloudy 2 - - - -
03/03:12am 20.1 SSW 3 4 1013.9 - 0.0 - Partly cloudy 2 - - - -
03/03:06am 20.1 SSW 3 4 1013.8 - 0.0 - Partly cloudy 4 - - - -
03/03:00am 20.2 SSW 1 3 1013.8 - 0.0 - Partly cloudy 2 - - - -
03/02:30am 20.8 SW 5 7 1014.1 - 0.0 - Cloudy 0.2 - - - -
03/02:00am 20.4 CALM 0 0 1013.9 - 0.0 - Cloudy 1 - - - -
03/01:36am 20.3 NNE 1 3 1014.3 - 0.0 - Partly cloudy 0.5 - - - -
03/01:30am 20.2 NNE 3 4 1014.3 - 0.0 - Partly cloudy 0.5 - - - -
03/01:03am 20.0 CALM 0 0 1014.5 - 0.0 - - 5 - - - -
03/01:00am 20.2 CALM 0 0 1014.6 - 0.0 - - 10 - - - -
03/12:30am 20.6 CALM 0 0 1015.0 - 0.0 - Partly cloudy 10 - - - -
03/12:00am 20.7 CALM 0 0 1015.3 - 0.0 - Mostly clear 10 - - - -
 
Date/Time
EST
Temp

°C
Wind Pressure Rain
since 9am
mm
Weather Cloud Vis
km
Sea
Height
m
Swell
Dir
 
Speed
knots
Gust
knots
hPa Trend Height
m
Period
s
Dir
02/11:48pm 20.9 CALM 0 0 1015.3 - 0.0 - Partly cloudy 10 - - - -
02/11:30pm 20.9 WNW 3 4 1015.4 - 0.0 - Partly cloudy 4 - - - -
02/11:26pm 20.9 WNW 3 4 1015.4 - 0.0 - Partly cloudy 5 - - - -
02/11:19pm 20.9 WNW 3 4 1015.3 - 0.0 - Partly cloudy 10 - - - -
02/11:03pm 21.0 WNW 4 5 1015.2 - 0.0 - Partly cloudy 9 - - - -
02/11:02pm 21.0 WNW 4 5 1015.2 - 0.0 - Partly cloudy 9 - - - -
02/11:00pm 21.0 WNW 3 5 1015.2 - 0.0 - Partly cloudy 10 - - - -
02/10:43pm 20.7 CALM 0 0 1015.1 - 0.0 - - 7 - - - -
02/10:30pm 20.8 CALM 0 0 1015.2 - 0.0 - - 10 - - - -

Other Formats:

Comma delimited format used in spreadsheet applications
http://www.bom.gov.au/fwo/IDQ60701/IDQ60701.94370.axf

JavaScript Object Notation format (JSON) in row-major order
http://www.bom.gov.au/fwo/IDQ60701/IDQ60701.94370.json